Time;durP1;ratioP1;P1;durP2;ratioP2;P2;SDS_P1;SDS_P2;PMS_P1;PMS_P2;Temp;Humidity;BMP_temperature;BMP_pressure;BME280_temperature;BME280_humidity;BME280_pressure;Samples;Min_cycle;Max_cycle;Signal;HPM_P1;HPM_P2
2023/08/01 00:01:13;;;;;;;11.05;4.70;;;16.60;99.90;;;;;;5008684;28;20061;-92
2023/08/01 00:04:13;;;;;;;8.38;4.15;;;16.60;99.90;;;;;;5002952;28;20042;-89
2023/08/01 00:07:01;;;;;;;7.22;4.30;;;16.60;99.90;;;;;;5005913;28;20172;-91
2023/08/01 00:09:51;;;;;;;5.93;3.92;;;16.60;99.90;;;;;;5010269;28;20188;-91
2023/08/01 00:12:39;;;;;;;7.35;4.20;;;16.60;99.90;;;;;;5017457;28;20050;-91
2023/08/01 00:15:27;;;;;;;6.32;4.25;;;16.70;80.30;;;;;;5018083;28;20049;-91
2023/08/01 00:18:15;;;;;;;7.57;4.57;;;16.60;49.10;;;;;;5019308;28;20049;-91
2023/08/01 00:21:10;;;;;;;6.53;4.40;;;16.60;44.90;;;;;;5016931;28;20057;-91
2023/08/01 00:23:58;;;;;;;9.63;4.72;;;16.60;94.20;;;;;;5002963;28;20140;-91
2023/08/01 00:26:56;;;;;;;9.25;4.50;;;16.60;56.10;;;;;;5026547;28;20136;-94
2023/08/01 00:29:47;;;;;;;6.60;4.30;;;16.60;1.00;;;;;;5015730;28;20042;-92
2023/08/01 00:32:42;;;;;;;7.70;3.95;;;16.70;99.90;;;;;;5016273;28;20041;-91
2023/08/01 00:36:02;;;;;;;;;;;;;;;;;;;;;
2023/08/01 00:38:54;;;;;;;8.00;4.47;;;16.70;99.90;;;;;;5014357;28;20110;-93
2023/08/01 00:41:43;;;;;;;8.23;4.43;;;16.70;99.90;;;;;;5015698;28;20762;-92
2023/08/01 00:44:40;;;;;;;9.13;4.20;;;16.70;99.90;;;;;;5009929;28;20076;-94
2023/08/01 00:47:29;;;;;;;6.85;4.18;;;16.60;99.90;;;;;;5009116;28;20065;-92
2023/08/01 00:50:22;;;;;;;7.28;4.22;;;16.60;99.90;;;;;;5009103;28;20070;-91
2023/08/01 00:53:11;;;;;;;7.47;4.20;;;16.60;99.90;;;;;;5012723;28;20065;-91
2023/08/01 00:56:07;;;;;;;7.47;4.70;;;16.60;99.90;;;;;;5010946;28;20057;-92
2023/08/01 00:59:01;;;;;;;6.65;3.72;;;16.70;99.90;;;;;;5015818;28;20061;-93
2023/08/01 01:01:54;;;;;;;7.15;4.22;;;16.80;4.00;;;;;;5017130;28;20081;-92
2023/08/01 01:04:57;;;;;;;6.90;3.72;;;16.80;1.00;;;;;;5013017;28;20093;-93
2023/08/01 01:07:44;;;;;;;11.10;5.07;;;16.90;99.90;;;;;;5011982;28;20125;-92
2023/08/01 01:10:40;;;;;;;10.60;4.53;;;16.90;1.00;;;;;;5029253;28;20402;-92
2023/08/01 01:13:28;;;;;;;9.63;5.15;;;16.60;99.90;;;;;;5015778;28;20117;-91
2023/08/01 01:16:15;;;;;;;10.73;4.80;;;16.30;1.00;;;;;;5015640;28;20050;-92
2023/08/01 01:19:12;;;;;;;8.73;4.65;;;16.10;33.10;;;;;;5008165;28;20060;-91
2023/08/01 01:22:09;;;;;;;8.52;5.13;;;16.00;10.90;;;;;;5015517;28;20050;-89
2023/08/01 01:24:58;;;;;;;8.15;4.93;;;15.90;99.90;;;;;;5005678;28;20047;-92
2023/08/01 01:27:46;;;;;;;10.02;5.43;;;15.80;99.90;;;;;;5015296;28;20049;-91
2023/08/01 01:30:34;;;;;;;10.82;5.07;;;15.80;99.90;;;;;;5026421;28;20061;-92
2023/08/01 01:33:24;;;;;;;6.15;4.68;;;15.80;99.90;;;;;;5013847;28;20365;-92
2023/08/01 01:36:12;;;;;;;8.30;4.72;;;15.80;99.90;;;;;;5010652;28;20061;-92
2023/08/01 01:38:59;;;;;;;12.07;5.15;;;15.80;99.90;;;;;;5015876;28;20041;-92
2023/08/01 01:41:47;;;;;;;9.05;5.10;;;15.70;99.90;;;;;;5012574;28;20034;-91
2023/08/01 01:44:34;;;;;;;8.95;5.53;;;15.70;99.90;;;;;;5019386;28;20058;-91
2023/08/01 01:47:21;;;;;;;10.48;5.38;;;15.80;99.90;;;;;;5009891;28;20042;-89
2023/08/01 01:50:09;;;;;;;9.60;4.85;;;15.80;99.90;;;;;;5005227;28;20460;-89
2023/08/01 01:52:56;;;;;;;8.52;5.22;;;15.90;99.90;;;;;;5008374;28;20389;-91
2023/08/01 01:55:43;;;;;;;8.00;4.70;;;15.90;99.90;;;;;;5014099;28;20053;-89
2023/08/01 01:58:30;;;;;;;8.30;5.20;;;15.90;99.90;;;;;;5016259;28;20046;-91
2023/08/01 02:01:20;;;;;;;7.70;4.68;;;16.00;99.90;;;;;;5008771;28;20503;-90
2023/08/01 02:04:07;;;;;;;14.57;5.22;;;16.00;99.90;;;;;;5012788;28;20050;-90
2023/08/01 02:06:56;;;;;;;9.35;5.13;;;16.00;99.90;;;;;;5008635;28;20046;-90
2023/08/01 02:09:49;;;;;;;7.05;4.50;;;16.20;99.90;;;;;;5011242;28;20053;-92
2023/08/01 02:12:38;;;;;;;7.38;5.05;;;16.20;99.90;;;;;;5006115;28;20043;-90
2023/08/01 02:15:26;;;;;;;7.85;4.43;;;16.40;83.30;;;;;;5002467;28;20057;-91
2023/08/01 02:18:17;;;;;;;6.57;4.80;;;16.40;1.00;;;;;;5019426;28;20100;-89
2023/08/01 02:21:04;;;;;;;6.68;4.28;;;16.40;99.90;;;;;;5018226;28;20058;-89
2023/08/01 02:23:51;;;;;;;7.95;4.32;;;16.50;99.90;;;;;;5018796;28;20044;-90
2023/08/01 02:26:41;;;;;;;6.43;4.47;;;16.50;99.90;;;;;;5013217;28;20042;-90
2023/08/01 02:29:31;;;;;;;7.68;4.95;;;16.40;99.90;;;;;;5015319;28;20369;-89
2023/08/01 02:32:18;;;;;;;10.27;4.60;;;16.40;1.00;;;;;;5015423;28;20042;-91
2023/08/01 02:35:06;;;;;;;7.57;4.47;;;16.30;1.00;;;;;;5014703;28;20193;-92
2023/08/01 02:37:55;;;;;;;11.18;4.80;;;16.40;99.90;;;;;;4999673;28;20057;-91
2023/08/01 02:40:42;;;;;;;5.90;4.38;;;16.40;99.90;;;;;;5010562;28;20065;-91
2023/08/01 02:43:30;;;;;;;6.47;4.35;;;16.40;1.00;;;;;;5011938;28;20054;-92
2023/08/01 02:46:17;;;;;;;7.70;4.47;;;16.50;47.80;;;;;;5015977;28;20062;-93
2023/08/01 02:49:07;;;;;;;7.35;4.75;;;16.60;42.40;;;;;;5002915;28;20050;-91
2023/08/01 02:52:01;;;;;;;9.10;4.63;;;16.60;99.90;;;;;;5016515;28;20038;-92
2023/08/01 02:54:51;;;;;;;7.53;3.92;;;16.70;99.90;;;;;;5010953;28;20034;-92
2023/08/01 02:57:38;;;;;;;7.03;4.13;;;16.80;1.00;;;;;;5012166;28;20050;-90
2023/08/01 03:00:26;;;;;;;7.72;4.60;;;16.80;99.90;;;;;;5008298;28;20073;-92
2023/08/01 03:03:13;;;;;;;7.38;3.97;;;16.90;99.90;;;;;;5008860;28;20050;-91
2023/08/01 03:06:02;;;;;;;9.52;4.40;;;16.90;1.00;;;;;;5008947;28;20045;-90
2023/08/01 03:08:51;;;;;;;5.63;3.78;;;17.00;99.90;;;;;;5010362;28;20057;-91
2023/08/01 03:11:41;;;;;;;7.28;4.05;;;17.10;1.00;;;;;;5015786;28;20049;-92
2023/08/01 03:14:29;;;;;;;11.73;4.22;;;17.10;99.90;;;;;;5012651;28;20054;-92
2023/08/01 03:17:16;;;;;;;9.55;3.90;;;17.10;99.90;;;;;;5010935;28;20068;-92
2023/08/01 03:20:05;;;;;;;7.82;3.90;;;17.10;99.90;;;;;;5002916;28;20042;-92
2023/08/01 03:22:52;;;;;;;8.57;3.95;;;17.20;1.00;;;;;;5014547;28;20046;-93
2023/08/01 03:25:40;;;;;;;7.15;4.28;;;17.20;1.00;;;;;;5011841;28;20053;-88
2023/08/01 03:28:30;;;;;;;5.88;3.83;;;17.20;1.00;;;;;;5015847;28;20038;-90
2023/08/01 03:31:18;;;;;;;7.60;4.03;;;17.20;1.00;;;;;;5003788;28;20543;-91
2023/08/01 03:34:08;;;;;;;8.73;4.20;;;17.30;99.90;;;;;;5005078;28;20057;-89
2023/08/01 03:36:56;;;;;;;7.63;4.00;;;17.50;76.40;;;;;;5009776;28;20069;-92
2023/08/01 03:39:45;;;;;;;6.97;3.78;;;17.50;1.00;;;;;;5011771;28;20369;-91
2023/08/01 03:42:35;;;;;;;10.35;4.78;;;17.30;97.90;;;;;;5007804;28;20038;-92
2023/08/01 03:45:23;;;;;;;7.15;4.25;;;17.20;99.90;;;;;;5009735;28;20034;-89
2023/08/01 03:48:11;;;;;;;5.88;4.03;;;17.30;99.90;;;;;;5012606;28;20046;-91
2023/08/01 03:50:58;;;;;;;6.80;3.88;;;17.20;99.90;;;;;;5018451;28;20049;-91
2023/08/01 03:53:51;;;;;;;9.82;3.90;;;17.20;99.90;;;;;;5014428;28;20055;-90
2023/08/01 03:56:56;;;;;;;6.95;3.88;;;17.10;1.00;;;;;;5015574;28;20045;-91
2023/08/01 03:59:44;;;;;;;8.20;3.90;;;17.10;1.00;;;;;;5013623;28;20125;-92
2023/08/01 04:07:45;;;;;;;10.75;4.75;;;17.00;99.90;;;;;;4974183;28;20042;-91
2023/08/01 04:10:41;;;;;;;8.30;4.15;;;17.00;99.90;;;;;;4971664;28;20106;-91
2023/08/01 04:13:34;;;;;;;6.72;3.85;;;16.90;1.00;;;;;;5006700;28;20050;-92
2023/08/01 04:16:24;;;;;;;12.95;4.93;;;16.90;1.00;;;;;;5014674;28;20042;-92
2023/08/01 04:19:14;;;;;;;8.60;4.35;;;16.90;9.90;;;;;;5013446;28;20468;-91
2023/08/01 04:22:05;;;;;;;6.93;3.92;;;17.00;1.00;;;;;;5031781;28;20050;-91
2023/08/01 04:24:55;;;;;;;7.25;4.57;;;16.90;1.00;;;;;;5012482;28;20057;-90
2023/08/01 04:27:43;;;;;;;11.35;4.70;;;17.00;99.90;;;;;;5013533;28;20104;-90
2023/08/01 04:30:33;;;;;;;7.63;4.13;;;17.00;99.90;;;;;;5025454;28;20137;-86
2023/08/01 04:33:20;;;;;;;10.35;4.50;;;17.00;99.90;;;;;;5028488;28;20048;-84
2023/08/01 04:36:07;;;;;;;7.95;4.43;;;17.00;99.90;;;;;;5022071;28;20065;-88
2023/08/01 04:38:54;;;;;;;8.65;3.92;;;17.00;99.90;;;;;;5022939;28;20057;-87
2023/08/01 04:41:42;;;;;;;8.23;4.03;;;17.00;99.90;;;;;;5031452;28;20042;-86
2023/08/01 04:44:30;;;;;;;6.72;4.00;;;17.00;99.90;;;;;;5034516;28;20057;-89
2023/08/01 04:47:17;;;;;;;8.32;3.97;;;17.00;81.20;;;;;;5023977;28;20097;-88
2023/08/01 04:50:05;;;;;;;8.35;4.05;;;17.00;1.00;;;;;;5024797;28;20050;-87
2023/08/01 04:52:53;;;;;;;9.32;3.95;;;17.00;1.00;;;;;;5010267;28;20373;-89
2023/08/01 04:55:40;;;;;;;6.65;3.60;;;17.10;99.90;;;;;;5010255;28;20050;-88
2023/08/01 04:58:27;;;;;;;8.30;3.67;;;17.10;99.90;;;;;;5016067;28;20037;-88
2023/08/01 05:01:15;;;;;;;9.98;4.78;;;17.20;99.90;;;;;;5003168;28;20050;-86
2023/08/01 05:04:05;;;;;;;7.75;4.20;;;17.20;1.00;;;;;;5006543;28;20057;-86
2023/08/01 05:06:53;;;;;;;9.10;5.13;;;17.30;99.90;;;;;;5013709;28;20046;-90
2023/08/01 05:09:43;;;;;;;12.52;3.90;;;17.30;99.90;;;;;;5013863;28;20165;-85
2023/08/01 05:15:19;;;;;;;9.52;5.03;;;17.30;99.90;;;;;;5973313;23;20096;-88
2023/08/01 05:18:13;;;;;;;7.20;4.40;;;17.30;26.20;;;;;;5066666;28;20047;-90
2023/08/01 05:21:24;;;;;;;7.40;4.35;;;17.30;1.00;;;;;;5048617;28;20056;-88
2023/08/01 05:24:15;;;;;;;6.40;4.28;;;17.30;1.00;;;;;;5073687;28;20052;-91
2023/08/01 05:27:16;;;;;;;10.57;5.05;;;17.30;1.00;;;;;;5077124;28;20052;-89
2023/08/01 05:30:06;;;;;;;8.18;4.70;;;17.30;1.00;;;;;;5060806;28;20045;-90
2023/08/01 05:33:01;;;;;;;15.73;5.00;;;17.30;1.00;;;;;;5062734;28;20589;-90
2023/08/01 05:35:55;;;;;;;8.80;4.30;;;17.30;1.00;;;;;;5064457;28;20052;-91
2023/08/01 05:38:45;;;;;;;11.80;4.63;;;17.40;99.90;;;;;;5065758;28;20459;-87
2023/08/01 05:42:02;;;;;;;7.57;4.32;;;17.40;99.90;;;;;;5057460;28;20489;-92
2023/08/01 05:44:55;;;;;;;7.65;4.47;;;17.40;99.90;;;;;;5059350;28;20045;-91
2023/08/01 05:47:55;;;;;;;9.35;4.75;;;17.50;99.90;;;;;;5059549;28;20048;-91
2023/08/01 05:51:06;;;;;;;14.50;5.00;;;17.50;99.90;;;;;;5083271;28;20040;-90
2023/08/01 05:54:32;;;;;;;6.32;4.45;;;17.60;99.90;;;;;;5071559;28;20056;-90
2023/08/01 05:57:20;;;;;;;7.05;4.40;;;17.50;99.90;;;;;;5060628;28;20057;-90
2023/08/01 06:00:13;;;;;;;9.20;4.15;;;17.50;99.90;;;;;;5054890;28;20045;-89
2023/08/01 06:03:01;;;;;;;11.10;4.57;;;17.50;99.90;;;;;;5054367;28;20052;-90
2023/08/01 06:05:52;;;;;;;9.20;4.60;;;17.50;99.90;;;;;;5062252;28;20044;-89
2023/08/01 06:12:44;;;;;;;;;;;;;;;;;;;;;
2023/08/01 06:15:52;;;;;;;7.10;4.28;;;17.40;99.90;;;;;;5057197;28;20044;-86
2023/08/01 06:26:37;;;;;;;;;;;;;;;;;;;;;
2023/08/01 06:30:17;;;;;;;8.95;4.93;;;17.40;99.90;;;;;;4934033;28;20050;-92
2023/08/01 06:33:54;;;;;;;;;;;;;;;;;;;;;
2023/08/01 06:37:25;;;;;;;10.38;4.35;;;17.30;99.90;;;;;;4861957;29;20045;-92
2023/08/01 06:40:14;;;;;;;7.72;4.18;;;17.20;99.90;;;;;;4804896;29;20764;-86
2023/08/01 06:47:31;;;;;;;7.80;4.47;;;17.20;99.90;;;;;;4856922;29;20044;-93
2023/08/01 06:50:43;;;;;;;9.18;5.38;;;17.10;99.90;;;;;;4877348;29;20052;-91
2023/08/01 06:54:28;;;;;;;;;;;;;;;;;;;;;
2023/08/01 06:57:35;;;;;;;7.93;4.85;;;17.00;99.90;;;;;;4890637;29;20400;-92
2023/08/01 07:00:26;;;;;;;8.75;4.70;;;17.10;99.90;;;;;;4954762;28;20103;-90
2023/08/01 07:03:16;;;;;;;7.80;5.28;;;17.20;99.90;;;;;;4955877;28;20043;-87
2023/08/01 07:06:04;;;;;;;8.30;5.40;;;17.40;99.90;;;;;;4971828;28;20126;-88
2023/08/01 07:08:54;;;;;;;9.73;5.35;;;17.40;30.00;;;;;;4984332;28;20085;-88
2023/08/01 07:11:41;;;;;;;8.30;5.35;;;17.50;1.00;;;;;;5037584;28;20048;-90
2023/08/01 07:14:31;;;;;;;10.27;5.70;;;17.50;1.00;;;;;;5036786;28;20333;-87
2023/08/01 07:17:51;;;;;;;10.70;6.43;;;17.30;1.00;;;;;;5039728;28;20442;-90
2023/08/01 07:20:39;;;;;;;10.15;6.45;;;16.80;99.90;;;;;;5037482;28;20096;-89
2023/08/01 07:23:29;;;;;;;10.75;6.07;;;16.50;1.00;;;;;;5021517;28;20663;-87
2023/08/01 07:26:17;;;;;;;9.32;5.43;;;16.40;99.90;;;;;;5021861;28;20065;-90
2023/08/01 07:29:11;;;;;;;10.02;5.63;;;16.50;99.90;;;;;;5023494;28;20049;-89
2023/08/01 07:31:59;;;;;;;11.30;6.05;;;16.70;99.90;;;;;;5020397;28;20053;-90
2023/08/01 07:34:49;;;;;;;8.90;5.03;;;16.80;85.60;;;;;;5025817;28;20069;-86
2023/08/01 07:37:54;;;;;;;7.22;4.00;;;16.90;24.00;;;;;;5022981;28;20522;-89
2023/08/01 07:41:12;;;;;;;5.85;4.60;;;16.90;1.00;;;;;;5026161;28;20050;-90
2023/08/01 07:44:16;;;;;;;8.55;4.22;;;16.70;99.90;;;;;;5032308;28;20053;-87
2023/08/01 07:47:15;;;;;;;7.78;4.45;;;16.20;99.90;;;;;;5041367;28;20046;-88
2023/08/01 07:50:10;;;;;;;9.48;4.00;;;15.90;99.90;;;;;;5033544;28;20042;-87
2023/08/01 07:53:01;;;;;;;7.97;4.10;;;15.70;34.00;;;;;;5028760;28;20077;-91
2023/08/01 08:00:22;;;;;;;10.15;5.20;;;15.50;99.90;;;;;;4913305;29;20550;-91
2023/08/01 08:03:18;;;;;;;9.05;4.25;;;15.50;99.90;;;;;;4916215;29;20494;-89
2023/08/01 08:10:19;;;;;;;7.05;5.10;;;15.30;99.90;;;;;;4934265;28;20054;-89
2023/08/01 08:13:23;;;;;;;11.82;5.43;;;15.20;99.90;;;;;;4945564;28;20047;-88
2023/08/01 08:16:25;;;;;;;9.82;5.97;;;15.20;99.90;;;;;;4956923;28;20122;-85
2023/08/01 08:19:13;;;;;;;10.57;6.28;;;15.10;99.90;;;;;;4951120;28;20050;-85
2023/08/01 08:22:03;;;;;;;9.90;5.82;;;15.10;99.90;;;;;;4965963;28;20421;-86
2023/08/01 08:25:03;;;;;;;;;;;;;;;;;;;;;
2023/08/01 08:28:00;;;;;;;11.20;6.03;;;15.20;99.90;;;;;;4965164;28;20050;-85
2023/08/01 08:31:02;;;;;;;8.88;5.75;;;15.30;99.90;;;;;;4962806;28;20143;-87
2023/08/01 08:34:00;;;;;;;9.65;5.13;;;15.30;99.90;;;;;;4958166;28;20130;-85
2023/08/01 08:36:50;;;;;;;8.98;5.50;;;15.50;99.90;;;;;;4992781;28;20053;-86
2023/08/01 08:39:57;;;;;;;8.82;5.03;;;15.60;99.90;;;;;;5023360;28;20120;-87
2023/08/01 08:43:02;;;;;;;;;;;;;;;;;;;;;
2023/08/01 08:46:04;;;;;;;8.65;4.35;;;15.80;99.90;;;;;;5022662;28;20130;-87
2023/08/01 08:49:30;;;;;;;8.82;4.63;;;15.70;99.90;;;;;;5023151;28;20057;-90
2023/08/01 08:52:46;;;;;;;6.95;4.03;;;15.70;99.90;;;;;;4983261;28;20038;-91
2023/08/01 08:56:09;;;;;;;5.63;4.00;;;15.80;99.90;;;;;;5026220;28;20892;-87
2023/08/01 08:59:07;;;;;;;6.65;4.07;;;15.80;99.90;;;;;;5026624;28;20099;-87
2023/08/01 09:02:28;;;;;;;5.22;3.65;;;15.90;99.90;;;;;;5030471;28;20107;-88
2023/08/01 09:05:30;;;;;;;6.97;3.58;;;15.90;99.90;;;;;;5029497;28;20045;-88
2023/08/01 09:09:27;;;;;;;6.53;3.80;;;16.00;99.90;;;;;;4981319;28;20491;-90
2023/08/01 09:12:46;;;;;;;5.78;3.22;;;16.00;99.90;;;;;;4975966;28;20046;-90
2023/08/01 09:16:01;;;;;;;7.43;3.13;;;16.10;99.90;;;;;;4981163;28;20105;-89
2023/08/01 09:20:04;;;;;;;;;;;;;;;;;;;;;
2023/08/01 09:23:32;;;;;;;4.35;2.88;;;16.20;99.90;;;;;;4887567;29;20048;-90
2023/08/01 09:26:52;;;;;;;;;;;16.40;99.90;;;;;;4969551;28;20468;-91
2023/08/01 09:30:11;;;;;;;8.50;2.60;;;16.40;99.90;;;;;;4958065;28;20328;-90
2023/08/01 09:33:12;;;;;;;3.63;2.37;;;16.30;99.90;;;;;;4943723;28;20050;-88
2023/08/01 09:36:05;;;;;;;3.03;2.20;;;16.30;99.90;;;;;;4967547;28;20453;-88
2023/08/01 09:39:09;;;;;;;2.95;1.90;;;16.30;99.90;;;;;;5021607;28;20050;-88
2023/08/01 09:42:02;;;;;;;3.38;1.88;;;16.20;99.90;;;;;;5023024;28;20038;-88
2023/08/01 09:44:51;;;;;;;2.90;2.05;;;16.20;99.90;;;;;;5018197;28;20038;-85
2023/08/01 09:47:42;;;;;;;4.72;2.03;;;16.10;99.90;;;;;;5021903;28;20380;-92
2023/08/01 09:50:55;;;;;;;5.55;2.35;;;16.10;99.90;;;;;;5027641;28;20042;-90
2023/08/01 09:53:52;;;;;;;3.60;2.92;;;16.20;99.90;;;;;;5022609;28;20057;-87
2023/08/01 09:57:11;;;;;;;3.58;1.38;;;16.30;99.90;;;;;;5024663;28;20425;-89
2023/08/01 10:00:22;;;;;;;;;;;;;;;;;;;;;
2023/08/01 10:04:26;;;;;;;;;;;;;;;;;;;;;
2023/08/01 10:16:53;;;;;;;1.77;1.38;;;16.60;99.90;;;;;;4922058;29;20103;-89
2023/08/01 10:19:56;;;;;;;1.23;0.80;;;16.70;99.90;;;;;;4959295;29;20051;-90
2023/08/01 10:22:47;;;;;;;1.33;0.90;;;16.90;99.90;;;;;;4935589;29;20079;-88
2023/08/01 10:25:38;;;;;;;1.10;0.90;;;17.00;99.90;;;;;;5006478;28;20049;-88
2023/08/01 10:28:54;;;;;;;1.85;0.80;;;17.00;99.90;;;;;;5025839;28;20477;-90
2023/08/01 10:31:52;;;;;;;0.98;0.70;;;17.30;99.90;;;;;;5025607;28;20177;-91
2023/08/01 10:34:54;;;;;;;1.52;0.90;;;17.30;99.90;;;;;;5026942;28;20050;-88
2023/08/01 10:37:45;;;;;;;0.90;0.90;;;17.20;99.90;;;;;;5026887;28;20048;-90
2023/08/01 10:40:47;;;;;;;0.60;0.60;;;17.50;99.90;;;;;;5021922;28;20380;-90
2023/08/01 10:43:53;;;;;;;1.02;0.55;;;18.10;99.90;;;;;;5031820;28;20040;-92
2023/08/01 10:47:00;;;;;;;0.95;0.70;;;18.40;99.90;;;;;;5039971;28;20064;-89
2023/08/01 10:49:52;;;;;;;0.80;0.55;;;19.70;99.90;;;;;;5024309;28;20038;-90
2023/08/01 10:52:46;;;;;;;0.98;0.70;;;19.90;99.90;;;;;;5030985;28;20050;-92
2023/08/01 10:56:05;;;;;;;1.05;0.50;;;21.20;99.90;;;;;;5037361;28;20060;-92
2023/08/01 11:03:15;;;;;;;1.58;0.75;;;21.40;90.70;;;;;;4946629;29;20051;-89
2023/08/01 11:06:04;;;;;;;3.38;0.70;;;21.20;99.90;;;;;;4935694;29;20070;-89
2023/08/01 11:09:35;;;;;;;0.90;0.90;;;21.50;1.00;;;;;;4954677;29;20099;-90
2023/08/01 11:16:30;;;;;;;1.10;1.00;;;21.60;50.70;;;;;;4926113;28;20038;-91
2023/08/01 11:19:31;;;;;;;3.72;1.02;;;22.30;12.00;;;;;;5028761;28;20068;-86
2023/08/01 11:23:03;;;;;;;4.57;0.77;;;21.70;1.00;;;;;;4997463;28;20471;-89
2023/08/01 11:25:54;;;;;;;2.70;0.90;;;21.50;1.00;;;;;;5023137;28;20050;-89
2023/08/01 11:45:53;;;;;;;1.20;0.80;;;24.30;99.90;;;;;;4899384;29;20111;-90
2023/08/01 11:49:00;;;;;;;1.73;0.80;;;23.30;99.90;;;;;;4876051;29;20057;-89
2023/08/01 11:51:50;;;;;;;1.02;0.75;;;24.00;99.90;;;;;;4929050;28;20055;-87
2023/08/01 11:54:45;;;;;;;2.15;0.93;;;23.90;99.90;;;;;;4969390;28;20070;-87
2023/08/01 11:57:33;;;;;;;1.75;0.90;;;23.40;99.90;;;;;;4955967;28;20047;-89
2023/08/01 12:00:28;;;;;;;3.05;1.02;;;23.60;99.90;;;;;;4968341;28;20054;-89
2023/08/01 12:03:18;;;;;;;2.22;0.90;;;23.70;99.90;;;;;;4971852;28;20047;-87
2023/08/01 12:06:09;;;;;;;1.75;0.90;;;23.20;99.90;;;;;;4973136;28;20113;-89
2023/08/01 12:09:12;;;;;;;2.60;0.90;;;23.40;99.90;;;;;;4972915;28;20129;-92
2023/08/01 12:12:00;;;;;;;0.98;0.80;;;23.80;99.90;;;;;;4972713;28;20053;-92
2023/08/01 12:14:48;;;;;;;2.38;1.13;;;24.40;99.90;;;;;;4972804;28;20143;-90
2023/08/01 12:17:38;;;;;;;2.15;1.08;;;23.70;99.90;;;;;;5010673;28;20132;-87
2023/08/01 12:20:37;;;;;;;4.57;1.20;;;22.90;99.90;;;;;;5032694;28;20045;-91
2023/08/01 12:23:25;;;;;;;1.63;0.90;;;23.30;99.90;;;;;;5036567;28;20049;-90
2023/08/01 12:26:21;;;;;;;1.42;0.90;;;23.90;99.90;;;;;;5034442;28;20048;-89
2023/08/01 12:29:09;;;;;;;3.30;1.20;;;24.70;99.90;;;;;;5040901;28;20060;-91
2023/08/01 12:32:10;;;;;;;1.05;0.90;;;25.80;99.90;;;;;;5037970;28;20042;-92
2023/08/01 12:35:03;;;;;;;1.23;1.05;;;26.20;99.90;;;;;;5026452;28;20053;-91
2023/08/01 12:37:59;;;;;;;0.80;0.80;;;26.00;99.90;;;;;;5029591;28;20119;-90
2023/08/01 12:40:48;;;;;;;1.40;1.00;;;26.00;99.90;;;;;;5020175;28;20053;-89
2023/08/01 12:47:48;;;;;;;1.52;0.95;;;26.50;95.60;;;;;;5015158;28;20052;-88
2023/08/01 12:50:48;;;;;;;2.08;1.10;;;28.20;85.80;;;;;;5022544;28;20170;-91
2023/08/01 12:54:04;;;;;;;3.63;0.93;;;27.70;65.00;;;;;;4970475;28;20060;-89
2023/08/01 12:56:55;;;;;;;1.23;1.08;;;26.50;52.10;;;;;;5026840;28;20399;-84
2023/08/01 12:59:44;;;;;;;1.63;1.33;;;25.70;52.80;;;;;;5026227;28;20405;-90
2023/08/01 13:02:31;;;;;;;2.75;0.90;;;25.70;52.00;;;;;;5028827;28;20037;-89
2023/08/01 13:05:22;;;;;;;1.50;0.90;;;26.20;50.30;;;;;;5028628;28;20114;-87
2023/08/01 13:08:10;;;;;;;2.53;1.00;;;26.40;46.50;;;;;;5023513;28;20417;-88
2023/08/01 13:11:00;;;;;;;2.92;0.90;;;27.30;40.30;;;;;;5014706;28;20133;-87
2023/08/01 13:13:50;;;;;;;4.22;1.00;;;28.10;38.60;;;;;;5027598;28;20046;-91
2023/08/01 13:17:13;;;;;;;;;;;;;;;;;;;;;
2023/08/01 13:20:20;;;;;;;1.17;0.90;;;25.20;18.70;;;;;;5022987;28;20049;-93
2023/08/01 13:52:43;;;;;;;;;;;;;;;;;;;;;
2023/08/01 13:56:28;;;;;;;;;;;;;;;;;;;;;
2023/08/01 14:08:05;;;;;;;3.55;1.20;;;26.60;1.00;;;;;;4845705;29;20131;-89
2023/08/01 14:12:16;;;;;;;2.70;1.10;;;26.20;1.00;;;;;;4894296;29;20045;-89
2023/08/01 14:15:24;;;;;;;2.17;1.20;;;25.20;1.00;;;;;;4988659;28;20081;-91
2023/08/01 14:18:38;;;;;;;;;;;;;;;;;;;;;
2023/08/01 14:21:45;;;;;;;1.83;0.93;;;26.00;1.00;;;;;;4930907;29;20158;-90
2023/08/01 14:24:33;;;;;;;2.65;1.20;;;27.50;1.00;;;;;;4958926;28;20055;-90
2023/08/01 14:27:57;;;;;;;1.85;0.95;;;27.20;1.00;;;;;;4959656;28;20126;-91
2023/08/01 14:30:49;;;;;;;1.70;1.08;;;26.90;1.00;;;;;;4968102;28;20047;-92
2023/08/01 14:34:05;;;;;;;2.30;0.88;;;26.90;1.00;;;;;;4977866;28;20047;-89
2023/08/01 14:42:04;;;;;;;1.08;0.93;;;25.70;1.00;;;;;;4982911;28;20026;-89
2023/08/01 14:49:33;;;;;;;;;;;;;;;;;;;;;
2023/08/01 14:53:07;;;;;;;;;;;;;;;;;;;;;
2023/08/01 14:56:04;;;;;;;0.80;0.80;;;25.60;1.00;;;;;;4986265;28;20061;-90
2023/08/01 14:58:53;;;;;;;1.48;0.88;;;24.10;1.00;;;;;;5005034;28;20484;-89
2023/08/01 15:01:46;;;;;;;1.27;1.08;;;23.20;1.00;;;;;;5035523;28;20405;-92
2023/08/01 15:04:37;;;;;;;1.83;1.02;;;22.60;1.00;;;;;;5027066;28;20037;-92
2023/08/01 15:07:27;;;;;;;2.75;1.20;;;22.30;1.00;;;;;;5030595;28;20041;-91
2023/08/01 15:10:15;;;;;;;1.80;1.13;;;22.10;1.00;;;;;;5020025;28;20125;-90
2023/08/01 15:13:03;;;;;;;1.67;1.05;;;22.20;1.00;;;;;;5022662;28;20124;-91
2023/08/01 15:15:50;;;;;;;1.45;1.02;;;22.20;1.00;;;;;;5019688;28;20085;-88
2023/08/01 15:18:40;;;;;;;2.08;1.10;;;23.00;1.00;;;;;;5026027;28;20357;-93
2023/08/01 15:21:29;;;;;;;3.95;1.05;;;22.50;1.00;;;;;;5028185;28;20037;-92
2023/08/01 15:24:30;;;;;;;1.23;1.13;;;22.30;1.00;;;;;;5026928;28;20045;-89
2023/08/01 15:27:18;;;;;;;2.58;0.95;;;23.10;1.00;;;;;;5029279;28;20053;-93
2023/08/01 15:30:06;;;;;;;3.42;1.05;;;22.20;1.00;;;;;;5024290;28;20057;-87
2023/08/01 15:32:54;;;;;;;1.83;1.27;;;23.20;1.00;;;;;;5017934;28;20121;-88
2023/08/01 15:35:44;;;;;;;1.52;1.10;;;24.30;1.00;;;;;;5014546;28;20116;-85
2023/08/01 15:38:33;;;;;;;4.32;1.15;;;24.60;1.00;;;;;;5013872;28;20041;-86
2023/08/01 15:41:21;;;;;;;2.70;1.30;;;23.30;1.00;;;;;;5018573;28;20046;-90
2023/08/01 15:44:11;;;;;;;1.73;1.27;;;22.20;1.00;;;;;;5029020;28;20135;-86
2023/08/01 15:46:59;;;;;;;1.55;1.23;;;21.60;1.00;;;;;;5018923;28;20050;-85
2023/08/01 15:49:46;;;;;;;2.15;1.15;;;21.50;1.00;;;;;;5027886;28;20070;-88
2023/08/01 15:52:33;;;;;;;1.88;1.20;;;21.60;1.00;;;;;;5019843;28;20092;-87
2023/08/01 15:55:26;;;;;;;2.00;1.20;;;21.50;1.00;;;;;;5026642;28;20053;-86
2023/08/01 15:58:13;;;;;;;;;;;21.30;1.00;;;;;;5021284;28;20137;-88
2023/08/01 16:01:03;;;;;;;2.22;1.20;;;21.10;1.00;;;;;;5020711;28;19925;-88
2023/08/01 16:03:53;;;;;;;2.67;1.40;;;20.80;1.00;;;;;;5029334;28;20139;-88
2023/08/01 16:06:40;;;;;;;1.80;1.13;;;21.10;1.00;;;;;;5018884;28;20057;-89
2023/08/01 16:09:28;;;;;;;3.83;1.17;;;21.10;1.00;;;;;;5020278;28;20045;-88
2023/08/01 16:12:15;;;;;;;1.55;1.20;;;21.20;1.00;;;;;;5021490;28;20038;-90
2023/08/01 16:15:03;;;;;;;2.25;1.40;;;21.00;1.00;;;;;;5017322;28;20056;-85
2023/08/01 16:17:53;;;;;;;2.75;1.30;;;20.90;1.00;;;;;;5022077;28;20124;-89
2023/08/01 16:20:40;;;;;;;1.73;1.30;;;20.80;1.00;;;;;;5020550;28;20073;-90
2023/08/01 16:23:27;;;;;;;6.38;1.00;;;21.00;1.00;;;;;;5023105;28;20061;-90
2023/08/01 16:26:17;;;;;;;1.77;1.00;;;21.40;1.00;;;;;;5027787;28;20125;-89
2023/08/01 16:29:04;;;;;;;3.67;1.30;;;21.70;1.00;;;;;;5022193;28;20595;-91
2023/08/01 16:31:51;;;;;;;1.95;1.20;;;21.60;1.00;;;;;;5024842;28;20050;-89
2023/08/01 16:34:39;;;;;;;1.45;1.02;;;21.60;1.00;;;;;;5019756;28;20056;-88
2023/08/01 16:37:30;;;;;;;1.35;0.90;;;21.90;1.00;;;;;;5021644;28;20050;-89
2023/08/01 16:40:31;;;;;;;;;;;;;;;;;;;;;
2023/08/01 16:43:49;;;;;;;2.00;1.13;;;21.60;1.00;;;;;;5028556;28;20037;-92
2023/08/01 16:46:39;;;;;;;1.90;1.08;;;21.40;1.00;;;;;;5031791;28;20053;-91
2023/08/01 16:49:53;;;;;;;3.50;1.52;;;21.50;1.00;;;;;;5036385;28;20104;-91
2023/08/01 16:52:44;;;;;;;3.67;1.52;;;21.60;1.00;;;;;;5037295;28;20060;-94
2023/08/01 16:55:37;;;;;;;2.97;1.50;;;21.50;1.00;;;;;;5022895;28;20049;-95
2023/08/01 16:58:54;;;;;;;2.30;1.40;;;21.10;1.00;;;;;;5018039;28;20456;-93
2023/08/01 17:01:43;;;;;;;2.75;1.42;;;20.70;1.00;;;;;;5025405;28;20042;-91
2023/08/01 17:04:49;;;;;;;2.97;1.38;;;20.40;1.00;;;;;;5029926;28;20042;-93
2023/08/01 17:07:37;;;;;;;2.72;1.42;;;20.20;1.00;;;;;;5020489;28;20058;-92
2023/08/01 17:11:00;;;;;;;2.35;1.08;;;20.10;1.00;;;;;;5025270;28;20124;-92
2023/08/01 17:13:53;;;;;;;4.68;1.30;;;20.00;1.00;;;;;;5044249;28;20042;-92
2023/08/01 17:16:43;;;;;;;2.60;1.30;;;19.90;1.00;;;;;;5029155;28;20038;-91
2023/08/01 17:19:31;;;;;;;3.58;1.33;;;19.90;1.00;;;;;;5024834;28;20135;-92
2023/08/01 17:28:26;;;;;;;3.75;1.60;;;19.70;1.00;;;;;;5499858;23;20145;-91
2023/08/01 17:31:17;;;;;;;3.38;1.45;;;19.70;1.00;;;;;;5057550;28;20049;-92
2023/08/01 17:34:19;;;;;;;2.85;1.50;;;19.70;1.00;;;;;;5018056;28;20487;-92
2023/08/01 17:37:27;;;;;;;2.78;1.70;;;19.70;1.00;;;;;;5013664;28;20069;-91
2023/08/01 17:40:18;;;;;;;9.07;1.33;;;19.70;1.00;;;;;;5017385;28;20046;-90
2023/08/01 17:43:05;;;;;;;2.92;1.30;;;19.70;1.00;;;;;;5007492;28;20046;-90
2023/08/01 17:45:56;;;;;;;2.58;1.48;;;19.60;2.00;;;;;;5005545;28;20065;-90
2023/08/01 17:48:47;;;;;;;3.38;1.23;;;19.60;2.90;;;;;;5012801;28;20154;-89
2023/08/01 17:51:35;;;;;;;3.80;1.20;;;19.50;4.70;;;;;;5011842;28;21087;-90